Butler, Illinois
Current Conditions -  °F | °C
As of 8:55 AM on Thursday 30 Oct 2014 (Local Time) from K3LF Reporting Station
Broken Clouds Broken Clouds  
Wind Chill: 37°   Ceiling: 9000
Heat Index: 42°   Visibility: 10mi
Dew Point: 37°   Wind: 7mph
Humidity: 82%   Direction: 160°SSE
Pressure: 30.16"   Gusts: NA
Location:  39.2°N, 89.53°W
Report Text: K3LF 301355Z AUTO 16006KT 10SM BKN090 05/03 A3016 RMK AO2 T00530025
Loading
Personal Weather Stations






























Interactive Weather Map
Tropical Storm Tracking
New forecast layout! Learn more

10-Day Weather Forecast

Advertisements
Track Severe Weather on mobile